Cambridge Bay Airport
CYCB : now visible

Airfield :











YOU CAN JOIN US ON...

 
LOGIN :

Register | Disclaimer

   EN    FR    IT 

 









Legend :    VFR   Marginal VFR   IFR   Intensive IFR   Very Intensive IFR
Visi :
Ceiling :
>= 8 km
>= 3000ft
5 to 8 km
1000 to 3000 ft
1500m to 5 km
500 to 1000 ft
800 to 1500m
200 to 500 ft
< 800m
< 200 ft
Symbols :   Thunderstorms  Fog  Heavy snow  Heavy precipitations  Wind > 20 kt






- Airport Elevation : 90 ft
- IATA code : YCB


CYCB - Cambridge Bay

CURRENT METAR :
  • 150300Z 31010KT 10SM IC FEW040 BKN070 M30/M34 A2969 RMK SC2AC5 SLP063

EXPIRED METARs :
  • 150200Z 32013KT 12SM IC DRSN SCT030 M31/M35 A2970 RMK SC3 SLP066
  • 150100Z 31012G18KT 8SM IC DRSN BKN020 M31/M35 A2971 RMK SC7 SLP068

TAF TAF CYCB
Valid from the 15 at 01:00 until the 15 at 13:00 UTC


150038Z 1501/1513 32015KT P6SM IC FEW230
TEMPO 1501/1507 4SM IC
FM150700 32015KT P6SM IC SCT020
TEMPO 1507/1513 4SM -SN BKN020 RMK NXT FCST BY 150700Z



MET'MAP, your aeronautical weather chart ! - Copyright ORBIFLY December 2007 - Disclaimer

ORBIFLY MET'MAP TEAM :

Programming & Development : Alexandra Zaïnal
Concept & original design : Baudouin d'Aumeries
Assistance for programming : Marc-Olivier Méhu
Technical & hardware support : Manuel Goepfert

Contact : metmap@orbifly.com




SOURCES & CREDITS :

   NOAA       Earth
Advisory